sensor_id;sensor_type;location;lat;lon;timestamp;P1;durP1;ratioP1;P2;durP2;ratioP2
43429;SDS011;29028;43.234;27.896;2022-10-22T17:05:59;10.52;;;5.28;;
43429;SDS011;29028;43.234;27.896;2022-10-22T17:06:23;9.60;;;5.25;;
43429;SDS011;29028;43.234;27.896;2022-10-22T17:06:44;9.38;;;5.00;;
43429;SDS011;29028;43.234;27.896;2022-10-22T17:07:05;9.02;;;5.38;;
43429;SDS011;29028;43.234;27.896;2022-10-22T17:07:27;9.73;;;5.65;;
43429;SDS011;29028;43.234;27.896;2022-10-22T17:07:48;9.77;;;5.57;;
43429;SDS011;29028;43.234;27.896;2022-10-22T17:08:09;9.77;;;5.47;;
43429;SDS011;29028;43.234;27.896;2022-10-22T17:08:30;10.57;;;5.70;;
43429;SDS011;29028;43.234;27.896;2022-10-22T17:08:53;9.18;;;4.90;;
43429;SDS011;29028;43.234;27.896;2022-10-22T17:09:14;8.15;;;4.80;;
43429;SDS011;29028;43.234;27.896;2022-10-22T17:09:35;8.25;;;4.88;;
43429;SDS011;29028;43.234;27.896;2022-10-22T17:09:57;10.00;;;5.35;;
43429;SDS011;29028;43.234;27.896;2022-10-22T17:10:18;8.55;;;4.93;;
43429;SDS011;29028;43.234;27.896;2022-10-22T17:10:39;7.85;;;4.50;;
43429;SDS011;29028;43.234;27.896;2022-10-22T17:11:03;7.93;;;4.25;;
43429;SDS011;29028;43.234;27.896;2022-10-22T17:11:26;7.40;;;4.30;;
43429;SDS011;29028;43.234;27.896;2022-10-22T17:11:49;6.32;;;4.30;;
43429;SDS011;29028;43.234;27.896;2022-10-22T17:12:09;6.33;;;4.20;;
43429;SDS011;29028;43.234;27.896;2022-10-22T17:12:31;7.05;;;3.97;;
43429;SDS011;29028;43.234;27.896;2022-10-22T17:12:54;6.50;;;4.18;;
43429;SDS011;29028;43.234;27.896;2022-10-22T17:13:15;5.90;;;3.97;;
43429;SDS011;29028;43.234;27.896;2022-10-22T17:13:36;5.65;;;3.65;;
43429;SDS011;29028;43.234;27.896;2022-10-22T17:14:00;4.32;;;3.08;;
43429;SDS011;29028;43.234;27.896;2022-10-22T17:14:21;4.20;;;2.97;;
43429;SDS011;29028;43.234;27.896;2022-10-22T17:14:42;3.78;;;2.80;;
43429;SDS011;29028;43.234;27.896;2022-10-22T17:15:05;5.22;;;3.15;;
43429;SDS011;29028;43.234;27.896;2022-10-22T17:15:26;5.82;;;3.42;;
43429;SDS011;29028;43.234;27.896;2022-10-22T17:15:47;4.63;;;3.10;;
43429;SDS011;29028;43.234;27.896;2022-10-22T17:16:09;4.85;;;3.25;;
43429;SDS011;29028;43.234;27.896;2022-10-22T17:16:33;6.40;;;3.35;;
43429;SDS011;29028;43.234;27.896;2022-10-22T17:16:53;5.20;;;3.13;;
43429;SDS011;29028;43.234;27.896;2022-10-22T17:17:14;4.10;;;3.00;;
43429;SDS011;29028;43.234;27.896;2022-10-22T17:17:35;3.80;;;2.50;;
43429;SDS011;29028;43.234;27.896;2022-10-22T17:17:58;4.40;;;2.88;;
43429;SDS011;29028;43.234;27.896;2022-10-22T17:18:19;4.70;;;3.10;;
43429;SDS011;29028;43.234;27.896;2022-10-22T17:18:40;6.50;;;3.10;;
43429;SDS011;29028;43.234;27.896;2022-10-22T17:19:04;4.15;;;2.70;;
43429;SDS011;29028;43.234;27.896;2022-10-22T17:19:26;4.95;;;3.17;;
43429;SDS011;29028;43.234;27.896;2022-10-22T17:19:46;5.22;;;3.40;;
43429;SDS011;29028;43.234;27.896;2022-10-22T17:20:07;5.47;;;3.10;;
43429;SDS011;29028;43.234;27.896;2022-10-22T17:20:31;4.57;;;2.90;;
43429;SDS011;29028;43.234;27.896;2022-10-22T17:20:52;4.50;;;3.22;;
43429;SDS011;29028;43.234;27.896;2022-10-22T17:21:16;4.78;;;3.45;;
43429;SDS011;29028;43.234;27.896;2022-10-22T17:21:39;4.95;;;3.25;;
43429;SDS011;29028;43.234;27.896;2022-10-22T17:21:59;4.90;;;3.03;;
43429;SDS011;29028;43.234;27.896;2022-10-22T17:22:20;6.17;;;3.27;;
43429;SDS011;29028;43.234;27.896;2022-10-22T17:22:41;6.72;;;3.50;;
43429;SDS011;29028;43.234;27.896;2022-10-22T17:23:03;6.50;;;3.45;;
43429;SDS011;29028;43.234;27.896;2022-10-22T17:23:24;4.90;;;3.17;;
43429;SDS011;29028;43.234;27.896;2022-10-22T17:23:47;4.88;;;3.50;;
43429;SDS011;29028;43.234;27.896;2022-10-22T17:24:14;5.57;;;3.30;;
43429;SDS011;29028;43.234;27.896;2022-10-22T17:24:35;4.75;;;3.20;;
43429;SDS011;29028;43.234;27.896;2022-10-22T17:25:11;4.25;;;3.22;;
43429;SDS011;29028;43.234;27.896;2022-10-22T17:25:35;5.60;;;3.20;;
43429;SDS011;29028;43.234;27.896;2022-10-22T17:26:17;5.70;;;3.20;;
43429;SDS011;29028;43.234;27.896;2022-10-22T17:26:40;5.07;;;3.25;;
43429;SDS011;29028;43.234;27.896;2022-10-22T17:27:02;5.72;;;3.53;;
43429;SDS011;29028;43.234;27.896;2022-10-22T17:27:24;4.90;;;3.13;;
43429;SDS011;29028;43.234;27.896;2022-10-22T17:27:49;5.57;;;3.38;;
43429;SDS011;29028;43.234;27.896;2022-10-22T17:28:14;5.90;;;3.50;;
43429;SDS011;29028;43.234;27.896;2022-10-22T17:28:35;5.00;;;3.22;;
43429;SDS011;29028;43.234;27.896;2022-10-22T17:28:56;4.25;;;3.17;;
43429;SDS011;29028;43.234;27.896;2022-10-22T17:29:19;4.55;;;3.03;;
43429;SDS011;29028;43.234;27.896;2022-10-22T17:29:41;4.38;;;3.00;;
43429;SDS011;29028;43.234;27.896;2022-10-22T17:30:02;5.10;;;2.93;;
43429;SDS011;29028;43.234;27.896;2022-10-22T17:30:23;5.80;;;3.00;;
43429;SDS011;29028;43.234;27.896;2022-10-22T17:30:46;5.30;;;3.00;;
43429;SDS011;29028;43.234;27.896;2022-10-22T17:31:07;4.97;;;2.70;;
43429;SDS011;29028;43.234;27.896;2022-10-22T17:31:35;4.95;;;3.00;;
43429;SDS011;29028;43.234;27.896;2022-10-22T17:32:12;5.47;;;3.10;;
43429;SDS011;29028;43.234;27.896;2022-10-22T17:32:34;4.15;;;2.90;;
43429;SDS011;29028;43.234;27.896;2022-10-22T17:32:56;3.92;;;2.90;;
43429;SDS011;29028;43.234;27.896;2022-10-22T17:33:17;4.45;;;3.00;;
43429;SDS011;29028;43.234;27.896;2022-10-22T17:33:39;5.30;;;3.10;;
43429;SDS011;29028;43.234;27.896;2022-10-22T17:34:00;3.92;;;3.00;;
43429;SDS011;29028;43.234;27.896;2022-10-22T17:34:25;5.40;;;3.22;;
43429;SDS011;29028;43.234;27.896;2022-10-22T17:34:59;5.43;;;3.13;;
43429;SDS011;29028;43.234;27.896;2022-10-22T17:35:22;5.20;;;2.83;;
43429;SDS011;29028;43.234;27.896;2022-10-22T17:35:45;5.00;;;3.00;;
43429;SDS011;29028;43.234;27.896;2022-10-22T17:36:11;4.00;;;2.80;;
43429;SDS011;29028;43.234;27.896;2022-10-22T17:36:35;5.30;;;2.97;;
43429;SDS011;29028;43.234;27.896;2022-10-22T17:36:58;4.70;;;2.90;;
43429;SDS011;29028;43.234;27.896;2022-10-22T17:37:22;4.38;;;2.83;;
43429;SDS011;29028;43.234;27.896;2022-10-22T17:37:46;4.15;;;2.90;;
43429;SDS011;29028;43.234;27.896;2022-10-22T17:38:07;4.73;;;2.97;;
43429;SDS011;29028;43.234;27.896;2022-10-22T17:38:34;4.30;;;2.75;;
43429;SDS011;29028;43.234;27.896;2022-10-22T17:38:57;3.42;;;2.72;;
43429;SDS011;29028;43.234;27.896;2022-10-22T17:39:20;3.40;;;2.70;;
43429;SDS011;29028;43.234;27.896;2022-10-22T17:39:41;3.40;;;2.78;;
43429;SDS011;29028;43.234;27.896;2022-10-22T17:40:04;3.95;;;2.90;;
43429;SDS011;29028;43.234;27.896;2022-10-22T17:40:28;4.78;;;3.10;;
43429;SDS011;29028;43.234;27.896;2022-10-22T17:40:59;4.78;;;3.00;;
43429;SDS011;29028;43.234;27.896;2022-10-22T17:41:24;4.43;;;3.03;;
43429;SDS011;29028;43.234;27.896;2022-10-22T17:41:46;4.30;;;3.17;;
43429;SDS011;29028;43.234;27.896;2022-10-22T17:42:11;5.50;;;3.22;;
43429;SDS011;29028;43.234;27.896;2022-10-22T17:42:34;4.43;;;3.15;;
43429;SDS011;29028;43.234;27.896;2022-10-22T17:42:55;4.80;;;3.15;;
43429;SDS011;29028;43.234;27.896;2022-10-22T17:43:18;4.47;;;3.05;;
43429;SDS011;29028;43.234;27.896;2022-10-22T17:43:39;3.90;;;3.08;;
43429;SDS011;29028;43.234;27.896;2022-10-22T17:44:23;5.07;;;2.90;;
43429;SDS011;29028;43.234;27.896;2022-10-22T17:44:43;5.32;;;2.97;;
43429;SDS011;29028;43.234;27.896;2022-10-22T17:45:06;5.03;;;3.00;;
43429;SDS011;29028;43.234;27.896;2022-10-22T17:45:30;6.00;;;3.17;;
43429;SDS011;29028;43.234;27.896;2022-10-22T17:45:51;6.82;;;3.33;;
43429;SDS011;29028;43.234;27.896;2022-10-22T17:46:18;5.05;;;2.70;;
43429;SDS011;29028;43.234;27.896;2022-10-22T17:46:41;5.47;;;3.10;;
43429;SDS011;29028;43.234;27.896;2022-10-22T17:47:12;4.63;;;2.60;;
43429;SDS011;29028;43.234;27.896;2022-10-22T17:47:34;5.15;;;3.22;;
43429;SDS011;29028;43.234;27.896;2022-10-22T17:47:56;5.05;;;3.13;;
43429;SDS011;29028;43.234;27.896;2022-10-22T17:48:25;4.68;;;3.20;;
43429;SDS011;29028;43.234;27.896;2022-10-22T17:48:48;5.10;;;3.30;;
43429;SDS011;29028;43.234;27.896;2022-10-22T17:49:17;6.13;;;3.15;;
43429;SDS011;29028;43.234;27.896;2022-10-22T17:49:42;5.30;;;3.50;;
43429;SDS011;29028;43.234;27.896;2022-10-22T17:50:06;5.28;;;3.28;;
43429;SDS011;29028;43.234;27.896;2022-10-22T17:50:33;6.70;;;3.20;;
43429;SDS011;29028;43.234;27.896;2022-10-22T17:51:04;5.15;;;3.13;;
43429;SDS011;29028;43.234;27.896;2022-10-22T17:51:38;5.45;;;3.13;;
43429;SDS011;29028;43.234;27.896;2022-10-22T17:52:00;6.05;;;3.20;;
43429;SDS011;29028;43.234;27.896;2022-10-22T17:52:22;5.57;;;3.10;;
43429;SDS011;29028;43.234;27.896;2022-10-22T17:52:45;4.78;;;2.72;;
43429;SDS011;29028;43.234;27.896;2022-10-22T17:53:25;4.68;;;2.90;;
43429;SDS011;29028;43.234;27.896;2022-10-22T17:53:47;5.55;;;3.15;;
43429;SDS011;29028;43.234;27.896;2022-10-22T17:54:09;6.43;;;3.53;;
43429;SDS011;29028;43.234;27.896;2022-10-22T17:54:32;5.40;;;3.10;;
43429;SDS011;29028;43.234;27.896;2022-10-22T17:54:53;5.30;;;3.17;;
43429;SDS011;29028;43.234;27.896;2022-10-22T17:55:17;4.20;;;3.25;;
43429;SDS011;29028;43.234;27.896;2022-10-22T17:55:39;4.25;;;2.97;;
43429;SDS011;29028;43.234;27.896;2022-10-22T17:56:01;4.40;;;2.85;;
43429;SDS011;29028;43.234;27.896;2022-10-22T17:56:24;5.50;;;3.20;;
43429;SDS011;29028;43.234;27.896;2022-10-22T17:56:49;5.30;;;3.10;;
43429;SDS011;29028;43.234;27.896;2022-10-22T17:57:30;4.78;;;3.22;;
43429;SDS011;29028;43.234;27.896;2022-10-22T17:58:02;4.93;;;3.00;;
43429;SDS011;29028;43.234;27.896;2022-10-22T17:58:27;4.85;;;2.70;;
43429;SDS011;29028;43.234;27.896;2022-10-22T17:58:54;5.07;;;2.63;;
43429;SDS011;29028;43.234;27.896;2022-10-22T17:59:26;4.03;;;2.78;;
43429;SDS011;29028;43.234;27.896;2022-10-22T17:59:54;6.00;;;2.95;;
43429;SDS011;29028;43.234;27.896;2022-10-22T18:00:15;6.55;;;2.88;;
43429;SDS011;29028;43.234;27.896;2022-10-22T18:00:38;4.90;;;2.60;;
43429;SDS011;29028;43.234;27.896;2022-10-22T18:00:59;5.78;;;2.80;;
43429;SDS011;29028;43.234;27.896;2022-10-22T18:01:21;5.70;;;2.92;;
43429;SDS011;29028;43.234;27.896;2022-10-22T18:01:44;3.80;;;2.70;;
43429;SDS011;29028;43.234;27.896;2022-10-22T18:02:17;3.63;;;2.95;;
43429;SDS011;29028;43.234;27.896;2022-10-22T18:02:43;4.43;;;3.17;;
43429;SDS011;29028;43.234;27.896;2022-10-22T18:03:17;4.80;;;2.83;;
43429;SDS011;29028;43.234;27.896;2022-10-22T18:03:40;5.00;;;2.90;;
43429;SDS011;29028;43.234;27.896;2022-10-22T18:04:02;5.20;;;2.95;;
43429;SDS011;29028;43.234;27.896;2022-10-22T18:04:27;4.00;;;2.97;;
43429;SDS011;29028;43.234;27.896;2022-10-22T18:04:50;3.85;;;2.78;;
43429;SDS011;29028;43.234;27.896;2022-10-22T18:05:11;3.83;;;2.75;;
43429;SDS011;29028;43.234;27.896;2022-10-22T18:05:43;4.28;;;2.95;;
43429;SDS011;29028;43.234;27.896;2022-10-22T18:06:08;4.22;;;2.60;;
43429;SDS011;29028;43.234;27.896;2022-10-22T18:06:30;5.35;;;2.67;;
43429;SDS011;29028;43.234;27.896;2022-10-22T18:06:52;5.38;;;2.80;;
43429;SDS011;29028;43.234;27.896;2022-10-22T18:07:13;4.72;;;2.70;;
43429;SDS011;29028;43.234;27.896;2022-10-22T18:07:35;4.28;;;2.83;;
43429;SDS011;29028;43.234;27.896;2022-10-22T18:07:56;4.70;;;3.00;;
43429;SDS011;29028;43.234;27.896;2022-10-22T18:08:17;5.40;;;3.15;;
43429;SDS011;29028;43.234;27.896;2022-10-22T18:08:38;5.03;;;3.40;;
43429;SDS011;29028;43.234;27.896;2022-10-22T18:09:02;4.65;;;3.08;;
43429;SDS011;29028;43.234;27.896;2022-10-22T18:09:24;5.30;;;2.90;;
43429;SDS011;29028;43.234;27.896;2022-10-22T18:09:45;5.15;;;3.35;;
43429;SDS011;29028;43.234;27.896;2022-10-22T18:10:06;7.03;;;3.67;;
43429;SDS011;29028;43.234;27.896;2022-10-22T18:10:28;6.75;;;3.83;;
43429;SDS011;29028;43.234;27.896;2022-10-22T18:10:51;7.90;;;4.07;;
43429;SDS011;29028;43.234;27.896;2022-10-22T18:11:13;6.63;;;3.45;;
43429;SDS011;29028;43.234;27.896;2022-10-22T18:11:37;5.45;;;3.53;;
43429;SDS011;29028;43.234;27.896;2022-10-22T18:11:59;7.28;;;3.70;;
43429;SDS011;29028;43.234;27.896;2022-10-22T18:12:21;8.52;;;3.90;;
43429;SDS011;29028;43.234;27.896;2022-10-22T18:12:42;6.43;;;3.80;;
43429;SDS011;29028;43.234;27.896;2022-10-22T18:13:03;6.13;;;3.55;;
43429;SDS011;29028;43.234;27.896;2022-10-22T18:13:27;5.70;;;3.08;;
43429;SDS011;29028;43.234;27.896;2022-10-22T18:13:54;6.55;;;3.53;;
43429;SDS011;29028;43.234;27.896;2022-10-22T18:14:18;6.00;;;3.58;;
43429;SDS011;29028;43.234;27.896;2022-10-22T18:14:47;6.90;;;3.58;;
43429;SDS011;29028;43.234;27.896;2022-10-22T18:15:12;5.93;;;3.78;;
43429;SDS011;29028;43.234;27.896;2022-10-22T18:15:33;9.23;;;4.15;;
43429;SDS011;29028;43.234;27.896;2022-10-22T18:15:55;7.18;;;4.10;;
43429;SDS011;29028;43.234;27.896;2022-10-22T18:16:24;5.63;;;3.45;;
43429;SDS011;29028;43.234;27.896;2022-10-22T18:16:47;5.35;;;3.50;;
43429;SDS011;29028;43.234;27.896;2022-10-22T18:17:10;7.28;;;3.53;;
43429;SDS011;29028;43.234;27.896;2022-10-22T18:17:36;6.32;;;3.28;;
43429;SDS011;29028;43.234;27.896;2022-10-22T18:18:02;5.10;;;3.28;;
43429;SDS011;29028;43.234;27.896;2022-10-22T18:18:34;6.68;;;3.90;;
43429;SDS011;29028;43.234;27.896;2022-10-22T18:18:56;6.25;;;3.80;;
43429;SDS011;29028;43.234;27.896;2022-10-22T18:19:19;6.22;;;3.67;;
43429;SDS011;29028;43.234;27.896;2022-10-22T18:19:42;5.43;;;3.90;;
43429;SDS011;29028;43.234;27.896;2022-10-22T18:20:07;5.13;;;3.58;;
43429;SDS011;29028;43.234;27.896;2022-10-22T18:20:29;5.97;;;3.70;;
43429;SDS011;29028;43.234;27.896;2022-10-22T18:21:04;7.05;;;4.00;;
43429;SDS011;29028;43.234;27.896;2022-10-22T18:21:30;7.72;;;4.18;;
43429;SDS011;29028;43.234;27.896;2022-10-22T18:21:53;8.60;;;4.80;;
43429;SDS011;29028;43.234;27.896;2022-10-22T18:22:17;8.73;;;5.22;;
43429;SDS011;29028;43.234;27.896;2022-10-22T18:22:39;10.50;;;5.90;;
43429;SDS011;29028;43.234;27.896;2022-10-22T18:23:04;11.20;;;6.10;;
43429;SDS011;29028;43.234;27.896;2022-10-22T18:23:30;10.25;;;6.32;;
43429;SDS011;29028;43.234;27.896;2022-10-22T18:23:59;11.55;;;7.10;;
43429;SDS011;29028;43.234;27.896;2022-10-22T18:24:20;13.88;;;8.23;;
43429;SDS011;29028;43.234;27.896;2022-10-22T18:24:41;10.48;;;6.75;;
43429;SDS011;29028;43.234;27.896;2022-10-22T18:25:03;9.88;;;5.90;;
43429;SDS011;29028;43.234;27.896;2022-10-22T18:25:24;8.27;;;5.20;;
43429;SDS011;29028;43.234;27.896;2022-10-22T18:25:48;9.25;;;5.05;;
43429;SDS011;29028;43.234;27.896;2022-10-22T18:26:10;9.07;;;5.20;;
43429;SDS011;29028;43.234;27.896;2022-10-22T18:26:37;7.35;;;4.80;;
43429;SDS011;29028;43.234;27.896;2022-10-22T18:26:57;6.32;;;4.20;;
43429;SDS011;29028;43.234;27.896;2022-10-22T18:27:18;5.80;;;3.95;;
43429;SDS011;29028;43.234;27.896;2022-10-22T18:27:43;6.50;;;4.18;;
43429;SDS011;29028;43.234;27.896;2022-10-22T18:28:05;5.95;;;3.67;;
43429;SDS011;29028;43.234;27.896;2022-10-22T18:28:25;6.60;;;3.80;;
43429;SDS011;29028;43.234;27.896;2022-10-22T18:28:48;8.07;;;3.78;;
43429;SDS011;29028;43.234;27.896;2022-10-22T18:29:16;6.40;;;4.05;;
43429;SDS011;29028;43.234;27.896;2022-10-22T18:29:43;7.93;;;4.70;;
43429;SDS011;29028;43.234;27.896;2022-10-22T18:30:06;10.05;;;5.30;;
43429;SDS011;29028;43.234;27.896;2022-10-22T18:30:28;9.57;;;5.13;;
43429;SDS011;29028;43.234;27.896;2022-10-22T18:30:51;6.88;;;4.40;;
43429;SDS011;29028;43.234;27.896;2022-10-22T18:31:12;7.78;;;4.03;;
43429;SDS011;29028;43.234;27.896;2022-10-22T18:31:40;6.70;;;4.20;;
43429;SDS011;29028;43.234;27.896;2022-10-22T18:32:06;6.45;;;4.00;;
43429;SDS011;29028;43.234;27.896;2022-10-22T18:32:29;5.47;;;3.53;;
43429;SDS011;29028;43.234;27.896;2022-10-22T18:32:51;5.15;;;3.45;;
43429;SDS011;29028;43.234;27.896;2022-10-22T18:33:18;5.20;;;3.50;;
43429;SDS011;29028;43.234;27.896;2022-10-22T18:33:43;6.28;;;3.92;;
43429;SDS011;29028;43.234;27.896;2022-10-22T18:34:04;5.30;;;3.83;;
43429;SDS011;29028;43.234;27.896;2022-10-22T18:34:29;5.13;;;3.58;;
43429;SDS011;29028;43.234;27.896;2022-10-22T18:34:51;5.93;;;3.35;;
43429;SDS011;29028;43.234;27.896;2022-10-22T18:35:17;5.45;;;3.60;;
43429;SDS011;29028;43.234;27.896;2022-10-22T18:35:38;4.85;;;3.70;;
43429;SDS011;29028;43.234;27.896;2022-10-22T18:36:15;5.25;;;3.35;;
43429;SDS011;29028;43.234;27.896;2022-10-22T18:36:41;5.68;;;3.60;;
43429;SDS011;29028;43.234;27.896;2022-10-22T18:37:03;4.90;;;3.20;;
43429;SDS011;29028;43.234;27.896;2022-10-22T18:37:24;5.32;;;3.13;;
43429;SDS011;29028;43.234;27.896;2022-10-22T18:37:46;5.55;;;3.35;;
43429;SDS011;29028;43.234;27.896;2022-10-22T18:38:07;5.50;;;3.33;;
43429;SDS011;29028;43.234;27.896;2022-10-22T18:38:28;4.35;;;3.10;;
43429;SDS011;29028;43.234;27.896;2022-10-22T18:38:49;4.32;;;2.95;;
43429;SDS011;29028;43.234;27.896;2022-10-22T18:39:11;5.35;;;3.05;;
43429;SDS011;29028;43.234;27.896;2022-10-22T18:39:33;5.88;;;3.35;;
43429;SDS011;29028;43.234;27.896;2022-10-22T18:40:05;5.45;;;3.10;;
43429;SDS011;29028;43.234;27.896;2022-10-22T18:40:30;5.85;;;3.08;;
43429;SDS011;29028;43.234;27.896;2022-10-22T18:40:51;5.40;;;3.00;;
43429;SDS011;29028;43.234;27.896;2022-10-22T18:41:13;4.82;;;2.88;;
43429;SDS011;29028;43.234;27.896;2022-10-22T18:41:34;4.40;;;2.95;;
43429;SDS011;29028;43.234;27.896;2022-10-22T18:41:59;5.50;;;3.10;;
43429;SDS011;29028;43.234;27.896;2022-10-22T18:42:25;4.63;;;3.20;;
43429;SDS011;29028;43.234;27.896;2022-10-22T18:42:45;4.28;;;2.75;;
43429;SDS011;29028;43.234;27.896;2022-10-22T18:43:07;5.00;;;2.70;;
43429;SDS011;29028;43.234;27.896;2022-10-22T18:43:30;4.47;;;3.00;;
43429;SDS011;29028;43.234;27.896;2022-10-22T18:43:53;4.50;;;3.17;;
43429;SDS011;29028;43.234;27.896;2022-10-22T18:44:16;4.57;;;2.80;;
43429;SDS011;29028;43.234;27.896;2022-10-22T18:44:37;4.47;;;3.05;;
43429;SDS011;29028;43.234;27.896;2022-10-22T18:44:59;6.40;;;3.28;;
43429;SDS011;29028;43.234;27.896;2022-10-22T18:45:20;4.72;;;3.50;;
43429;SDS011;29028;43.234;27.896;2022-10-22T18:45:44;4.72;;;3.50;;
43429;SDS011;29028;43.234;27.896;2022-10-22T18:46:09;5.15;;;3.60;;
43429;SDS011;29028;43.234;27.896;2022-10-22T18:46:50;4.22;;;3.05;;
43429;SDS011;29028;43.234;27.896;2022-10-22T18:47:13;5.05;;;3.03;;
43429;SDS011;29028;43.234;27.896;2022-10-22T18:47:38;5.13;;;3.33;;
43429;SDS011;29028;43.234;27.896;2022-10-22T18:48:16;4.88;;;3.20;;
43429;SDS011;29028;43.234;27.896;2022-10-22T18:48:45;6.03;;;3.70;;
43429;SDS011;29028;43.234;27.896;2022-10-22T18:49:49;5.15;;;3.33;;
43429;SDS011;29028;43.234;27.896;2022-10-22T18:50:11;4.53;;;3.10;;
43429;SDS011;29028;43.234;27.896;2022-10-22T18:50:41;4.78;;;3.10;;
43429;SDS011;29028;43.234;27.896;2022-10-22T18:51:04;4.70;;;3.00;;
43429;SDS011;29028;43.234;27.896;2022-10-22T18:51:38;4.40;;;3.00;;
43429;SDS011;29028;43.234;27.896;2022-10-22T18:52:03;4.82;;;3.20;;
43429;SDS011;29028;43.234;27.896;2022-10-22T18:52:27;5.05;;;3.45;;
43429;SDS011;29028;43.234;27.896;2022-10-22T18:52:50;4.18;;;3.08;;
43429;SDS011;29028;43.234;27.896;2022-10-22T18:53:17;3.67;;;2.70;;
43429;SDS011;29028;43.234;27.896;2022-10-22T18:53:43;3.88;;;2.90;;
43429;SDS011;29028;43.234;27.896;2022-10-22T18:54:04;3.88;;;2.92;;
43429;SDS011;29028;43.234;27.896;2022-10-22T18:54:26;4.10;;;2.70;;
43429;SDS011;29028;43.234;27.896;2022-10-22T18:54:48;4.03;;;2.80;;
43429;SDS011;29028;43.234;27.896;2022-10-22T18:55:09;3.58;;;2.65;;
43429;SDS011;29028;43.234;27.896;2022-10-22T18:55:31;4.95;;;2.83;;
43429;SDS011;29028;43.234;27.896;2022-10-22T18:55:52;4.85;;;3.00;;
43429;SDS011;29028;43.234;27.896;2022-10-22T18:56:14;5.20;;;2.80;;
43429;SDS011;29028;43.234;27.896;2022-10-22T18:56:35;4.65;;;2.50;;
43429;SDS011;29028;43.234;27.896;2022-10-22T18:56:57;4.38;;;2.80;;
43429;SDS011;29028;43.234;27.896;2022-10-22T18:57:21;4.60;;;2.72;;
43429;SDS011;29028;43.234;27.896;2022-10-22T18:57:47;5.00;;;3.13;;
43429;SDS011;29028;43.234;27.896;2022-10-22T18:58:09;4.72;;;2.80;;
43429;SDS011;29028;43.234;27.896;2022-10-22T18:58:32;4.20;;;2.90;;
43429;SDS011;29028;43.234;27.896;2022-10-22T18:58:59;4.20;;;2.90;;
43429;SDS011;29028;43.234;27.896;2022-10-22T18:59:20;4.40;;;2.70;;
43429;SDS011;29028;43.234;27.896;2022-10-22T18:59:43;5.75;;;2.90;;
43429;SDS011;29028;43.234;27.896;2022-10-22T19:00:05;4.53;;;2.70;;
43429;SDS011;29028;43.234;27.896;2022-10-22T19:00:28;3.80;;;3.00;;
43429;SDS011;29028;43.234;27.896;2022-10-22T19:00:49;4.30;;;3.10;;
43429;SDS011;29028;43.234;27.896;2022-10-22T19:01:12;5.35;;;3.40;;
43429;SDS011;29028;43.234;27.896;2022-10-22T19:01:44;5.70;;;3.92;;
43429;SDS011;29028;43.234;27.896;2022-10-22T19:02:11;4.88;;;3.22;;
43429;SDS011;29028;43.234;27.896;2022-10-22T19:02:36;4.63;;;3.30;;
43429;SDS011;29028;43.234;27.896;2022-10-22T19:02:57;5.25;;;3.83;;
43429;SDS011;29028;43.234;27.896;2022-10-22T19:03:20;6.47;;;4.22;;
43429;SDS011;29028;43.234;27.896;2022-10-22T19:03:43;6.25;;;4.22;;
43429;SDS011;29028;43.234;27.896;2022-10-22T19:04:05;5.70;;;3.80;;
43429;SDS011;29028;43.234;27.896;2022-10-22T19:04:26;6.40;;;4.03;;
43429;SDS011;29028;43.234;27.896;2022-10-22T19:04:55;5.28;;;3.80;;
43429;SDS011;29028;43.234;27.896;2022-10-22T19:05:17;5.65;;;3.90;;
43429;SDS011;29028;43.234;27.896;2022-10-22T19:05:43;5.82;;;3.45;;
43429;SDS011;29028;43.234;27.896;2022-10-22T19:06:05;4.47;;;3.00;;
43429;SDS011;29028;43.234;27.896;2022-10-22T19:06:29;3.83;;;2.90;;
43429;SDS011;29028;43.234;27.896;2022-10-22T19:06:51;4.60;;;2.97;;
43429;SDS011;29028;43.234;27.896;2022-10-22T19:07:14;4.80;;;2.88;;
43429;SDS011;29028;43.234;27.896;2022-10-22T19:07:40;4.90;;;2.78;;
43429;SDS011;29028;43.234;27.896;2022-10-22T19:08:01;5.03;;;3.00;;
43429;SDS011;29028;43.234;27.896;2022-10-22T19:08:25;4.68;;;2.90;;
43429;SDS011;29028;43.234;27.896;2022-10-22T19:08:50;4.47;;;2.90;;
43429;SDS011;29028;43.234;27.896;2022-10-22T19:09:11;3.97;;;3.08;;
43429;SDS011;29028;43.234;27.896;2022-10-22T19:09:33;3.95;;;3.00;;
43429;SDS011;29028;43.234;27.896;2022-10-22T19:09:57;4.63;;;3.15;;
43429;SDS011;29028;43.234;27.896;2022-10-22T19:10:21;4.57;;;3.05;;
43429;SDS011;29028;43.234;27.896;2022-10-22T19:10:44;5.85;;;2.95;;
43429;SDS011;29028;43.234;27.896;2022-10-22T19:11:09;6.13;;;3.05;;
43429;SDS011;29028;43.234;27.896;2022-10-22T19:11:33;5.55;;;2.97;;
43429;SDS011;29028;43.234;27.896;2022-10-22T19:11:55;4.13;;;2.88;;
43429;SDS011;29028;43.234;27.896;2022-10-22T19:12:22;6.10;;;3.33;;
43429;SDS011;29028;43.234;27.896;2022-10-22T19:12:48;6.80;;;3.08;;
43429;SDS011;29028;43.234;27.896;2022-10-22T19:13:10;6.75;;;3.22;;
43429;SDS011;29028;43.234;27.896;2022-10-22T19:13:32;7.65;;;3.45;;
43429;SDS011;29028;43.234;27.896;2022-10-22T19:13:56;9.07;;;3.63;;
43429;SDS011;29028;43.234;27.896;2022-10-22T19:14:38;6.75;;;3.58;;
43429;SDS011;29028;43.234;27.896;2022-10-22T19:15:11;8.88;;;3.40;;
43429;SDS011;29028;43.234;27.896;2022-10-22T19:15:34;7.50;;;3.38;;
43429;SDS011;29028;43.234;27.896;2022-10-22T19:16:00;5.90;;;3.08;;
43429;SDS011;29028;43.234;27.896;2022-10-22T19:16:23;8.77;;;3.13;;
43429;SDS011;29028;43.234;27.896;2022-10-22T19:16:47;7.43;;;2.97;;
43429;SDS011;29028;43.234;27.896;2022-10-22T19:17:09;7.28;;;3.05;;
43429;SDS011;29028;43.234;27.896;2022-10-22T19:17:31;6.38;;;3.40;;
43429;SDS011;29028;43.234;27.896;2022-10-22T19:17:54;5.50;;;3.20;;
43429;SDS011;29028;43.234;27.896;2022-10-22T19:18:18;5.80;;;2.95;;
43429;SDS011;29028;43.234;27.896;2022-10-22T19:18:39;5.05;;;2.53;;
43429;SDS011;29028;43.234;27.896;2022-10-22T19:19:02;5.65;;;2.90;;
43429;SDS011;29028;43.234;27.896;2022-10-22T19:19:28;5.32;;;2.80;;
43429;SDS011;29028;43.234;27.896;2022-10-22T19:19:52;5.50;;;2.88;;
43429;SDS011;29028;43.234;27.896;2022-10-22T19:20:13;4.85;;;2.70;;
43429;SDS011;29028;43.234;27.896;2022-10-22T19:20:46;4.55;;;2.90;;
43429;SDS011;29028;43.234;27.896;2022-10-22T19:21:07;4.45;;;2.70;;
43429;SDS011;29028;43.234;27.896;2022-10-22T19:21:31;5.65;;;3.10;;
43429;SDS011;29028;43.234;27.896;2022-10-22T19:21:52;5.40;;;3.30;;
43429;SDS011;29028;43.234;27.896;2022-10-22T19:22:19;7.07;;;3.05;;
43429;SDS011;29028;43.234;27.896;2022-10-22T19:22:40;6.40;;;3.40;;
43429;SDS011;29028;43.234;27.896;2022-10-22T19:23:02;6.50;;;3.30;;
43429;SDS011;29028;43.234;27.896;2022-10-22T19:23:26;6.03;;;3.50;;
43429;SDS011;29028;43.234;27.896;2022-10-22T19:23:49;5.45;;;3.53;;
43429;SDS011;29028;43.234;27.896;2022-10-22T19:24:13;4.30;;;2.78;;
43429;SDS011;29028;43.234;27.896;2022-10-22T19:24:44;5.20;;;2.90;;
43429;SDS011;29028;43.234;27.896;2022-10-22T19:25:08;5.15;;;2.60;;
43429;SDS011;29028;43.234;27.896;2022-10-22T19:25:29;5.15;;;2.60;;
43429;SDS011;29028;43.234;27.896;2022-10-22T19:25:58;4.15;;;2.60;;
43429;SDS011;29028;43.234;27.896;2022-10-22T19:26:21;5.97;;;2.83;;
43429;SDS011;29028;43.234;27.896;2022-10-22T19:26:45;4.63;;;2.70;;
43429;SDS011;29028;43.234;27.896;2022-10-22T19:27:10;3.35;;;2.60;;
43429;SDS011;29028;43.234;27.896;2022-10-22T19:27:34;4.32;;;2.83;;
43429;SDS011;29028;43.234;27.896;2022-10-22T19:27:57;3.75;;;2.72;;
43429;SDS011;29028;43.234;27.896;2022-10-22T19:28:18;4.85;;;2.70;;
43429;SDS011;29028;43.234;27.896;2022-10-22T19:28:39;5.18;;;2.63;;